Time;durP1;ratioP1;P1;durP2;ratioP2;P2;SDS_P1;SDS_P2;PMS_P1;PMS_P2;Temp;Humidity;BMP_temperature;BMP_pressure;BME280_temperature;BME280_humidity;BME280_pressure;Samples;Min_cycle;Max_cycle;Signal;HPM_P1;HPM_P2
2021/01/12 00:01:43;;;;;;;41.88;19.50;;;;;;;5.37;100.00;99699.13;4914907;29;20513;-77
2021/01/12 00:04:09;;;;;;;39.88;18.73;;;;;;;5.38;100.00;99695.31;4916708;29;20024;-77
2021/01/12 00:06:35;;;;;;;38.28;18.40;;;;;;;5.38;100.00;99681.97;4909099;29;20103;-77
2021/01/12 00:09:01;;;;;;;36.95;17.55;;;;;;;5.45;100.00;99681.41;4905105;29;20711;-77
2021/01/12 00:11:26;;;;;;;39.20;19.10;;;;;;;5.43;100.00;99663.06;4915766;29;20096;-76
2021/01/12 00:13:52;;;;;;;36.25;18.15;;;;;;;5.45;100.00;99676.84;4902021;29;20032;-78
2021/01/12 00:16:19;;;;;;;37.50;18.50;;;;;;;5.50;100.00;99665.09;4916213;29;20394;-77
2021/01/12 00:18:45;;;;;;;40.78;19.40;;;;;;;5.56;100.00;99660.28;4913274;29;20402;-77
2021/01/12 00:21:11;;;;;;;43.25;20.13;;;;;;;5.57;100.00;99677.88;4911148;29;20076;-77
2021/01/12 00:23:36;;;;;;;38.47;18.98;;;;;;;5.50;100.00;99660.53;4908025;29;20124;-76
2021/01/12 00:26:06;;;;;;;44.15;19.05;;;;;;;5.61;100.00;99652.81;4900058;29;20063;-77
2021/01/12 00:28:31;;;;;;;41.72;19.65;;;;;;;5.62;100.00;99656.22;4890627;29;20031;-77
2021/01/12 00:30:57;;;;;;;37.53;18.30;;;;;;;5.63;100.00;99641.78;4932181;29;20031;-77
2021/01/12 00:33:22;;;;;;;43.20;19.60;;;;;;;5.63;100.00;99631.88;4929706;29;20036;-77
2021/01/12 00:35:48;;;;;;;40.65;19.52;;;;;;;5.60;100.00;99629.09;4916115;29;20042;-78
2021/01/12 00:38:13;;;;;;;38.13;18.92;;;;;;;5.67;100.00;99630.03;4908404;29;20036;-77
2021/01/12 00:40:39;;;;;;;38.72;19.13;;;;;;;5.63;100.00;99634.53;4894776;29;20043;-79
2021/01/12 00:43:04;;;;;;;37.40;18.77;;;;;;;5.69;100.00;99632.38;4907269;29;20040;-78
2021/01/12 00:45:30;;;;;;;39.00;19.15;;;;;;;5.74;100.00;99635.56;4916510;29;20104;-79
2021/01/12 00:47:55;;;;;;;40.33;19.23;;;;;;;5.72;100.00;99631.66;4917368;29;20135;-77
2021/01/12 00:50:21;;;;;;;43.40;20.50;;;;;;;5.72;100.00;99615.66;4914607;29;20024;-76
2021/01/12 00:52:46;;;;;;;39.92;18.80;;;;;;;5.71;100.00;99617.53;4914660;29;20504;-76
2021/01/12 00:55:12;;;;;;;42.45;20.35;;;;;;;5.72;100.00;99619.09;4911824;29;20114;-77
2021/01/12 00:57:40;;;;;;;41.38;18.70;;;;;;;5.75;100.00;99622.97;4915609;29;20034;-76
2021/01/12 01:00:06;;;;;;;43.40;18.77;;;;;;;5.76;100.00;99611.16;4920185;29;20028;-77
2021/01/12 01:02:31;;;;;;;44.58;20.20;;;;;;;5.87;100.00;99604.97;4922857;29;20031;-77
2021/01/12 01:04:57;;;;;;;44.47;20.45;;;;;;;5.89;100.00;99615.28;4911253;29;20036;-79
2021/01/12 01:07:22;;;;;;;42.63;20.15;;;;;;;5.92;100.00;99604.69;4918090;29;20024;-75
2021/01/12 01:09:48;;;;;;;49.78;21.95;;;;;;;5.87;100.00;99606.84;4898625;29;20058;-77
2021/01/12 01:12:13;;;;;;;48.65;20.48;;;;;;;5.89;100.00;99600.03;4915036;29;20118;-78
2021/01/12 01:14:39;;;;;;;41.78;19.80;;;;;;;5.89;100.00;99589.34;4910707;29;20501;-78
2021/01/12 01:17:04;;;;;;;40.13;20.27;;;;;;;5.94;100.00;99593.66;4922544;29;20040;-77
2021/01/12 01:19:50;;;;;;;42.55;19.88;;;;;;;5.99;100.00;99583.47;4919596;29;20024;-75
2021/01/12 01:22:15;;;;;;;38.92;19.05;;;;;;;5.96;100.00;99578.06;4906819;29;20060;-77
2021/01/12 01:24:41;;;;;;;38.42;19.13;;;;;;;5.88;100.00;99573.69;4896566;29;20513;-76
2021/01/12 01:27:06;;;;;;;35.08;18.00;;;;;;;5.89;100.00;99586.69;4873239;29;20054;-76
2021/01/12 01:29:32;;;;;;;37.35;18.88;;;;;;;5.96;100.00;99560.09;4910456;29;20563;-76
2021/01/12 01:31:58;;;;;;;37.60;18.35;;;;;;;6.07;100.00;99571.03;4878463;29;20046;-77
2021/01/12 01:34:27;;;;;;;35.63;17.10;;;;;;;6.13;100.00;99550.91;4900868;29;20055;-76
2021/01/12 01:37:00;;;;;;;28.65;15.77;;;;;;;6.12;100.00;99568.06;4916131;29;20039;-76
2021/01/12 01:39:25;;;;;;;35.85;16.08;;;;;;;6.17;100.00;99562.44;4911301;29;20063;-79
2021/01/12 01:41:51;;;;;;;29.55;15.75;;;;;;;6.16;100.00;99556.34;4912901;29;20039;-76
2021/01/12 01:44:16;;;;;;;29.50;15.60;;;;;;;6.18;100.00;99559.44;4882406;29;20083;-78
2021/01/12 01:46:42;;;;;;;34.25;16.45;;;;;;;6.16;100.00;99550.19;4893060;29;20052;-77
2021/01/12 01:49:10;;;;;;;30.48;15.02;;;;;;;6.21;100.00;99545.34;4917134;29;20536;-77
2021/01/12 01:51:35;;;;;;;32.63;15.98;;;;;;;6.22;100.00;99540.78;4908708;29;20465;-77
2021/01/12 01:54:22;;;;;;;30.85;14.95;;;;;;;6.27;100.00;99546.59;4880396;29;20094;-77
2021/01/12 01:56:47;;;;;;;27.92;14.27;;;;;;;6.34;100.00;99556.69;4865042;29;20045;-77
2021/01/12 01:59:13;;;;;;;29.40;15.20;;;;;;;6.34;100.00;99543.31;4864368;29;20048;-76
2021/01/12 02:01:38;;;;;;;30.05;15.40;;;;;;;6.43;100.00;99543.84;4855552;29;20049;-76
2021/01/12 02:04:07;;;;;;;30.77;15.50;;;;;;;6.39;100.00;99540.34;4857833;29;20542;-77
2021/01/12 02:06:35;;;;;;;31.60;15.13;;;;;;;6.32;100.00;99534.88;4875740;29;20100;-76
2021/01/12 02:09:16;;;;;;;27.42;13.60;;;;;;;6.31;100.00;99533.31;4872064;29;20041;-76
2021/01/12 02:11:47;;;;;;;27.48;14.10;;;;;;;6.36;100.00;99531.16;4873677;29;20049;-76
2021/01/12 02:14:16;;;;;;;28.65;14.70;;;;;;;6.25;100.00;99527.47;4854995;29;20510;-76
2021/01/12 02:16:42;;;;;;;27.80;14.00;;;;;;;6.33;100.00;99528.38;4876123;29;20088;-77
2021/01/12 02:19:16;;;;;;;27.15;14.07;;;;;;;6.33;100.00;99534.50;4859269;29;20444;-78
2021/01/12 02:21:50;;;;;;;25.77;13.18;;;;;;;6.36;100.00;99530.38;4876205;29;20093;-76
2021/01/12 02:24:16;;;;;;;26.25;13.80;;;;;;;6.45;100.00;99516.75;4872159;29;20041;-77
2021/01/12 02:26:42;;;;;;;24.33;13.32;;;;;;;6.52;100.00;99512.31;4865619;29;20041;-77
2021/01/12 02:29:07;;;;;;;25.35;13.90;;;;;;;6.44;100.00;99515.22;4862872;29;20032;-76
2021/01/12 02:31:33;;;;;;;23.85;12.55;;;;;;;6.40;100.00;99509.81;4855434;29;20073;-77
2021/01/12 02:34:04;;;;;;;24.40;13.50;;;;;;;6.39;100.00;99506.38;4896541;29;20058;-77
2021/01/12 02:36:31;;;;;;;24.83;12.82;;;;;;;6.42;100.00;99504.88;4909656;29;20067;-76
2021/01/12 02:39:01;;;;;;;28.33;13.75;;;;;;;6.36;100.00;99503.63;4910365;29;20036;-76
2021/01/12 02:41:34;;;;;;;26.15;13.32;;;;;;;6.39;100.00;99505.59;4910834;29;20033;-76
2021/01/12 02:44:01;;;;;;;26.70;13.80;;;;;;;6.41;100.00;99497.97;4920275;29;20032;-77
2021/01/12 02:46:30;;;;;;;25.13;12.95;;;;;;;6.43;100.00;99487.69;4904093;29;20044;-76
2021/01/12 02:49:16;;;;;;;26.38;14.25;;;;;;;6.44;100.00;99491.94;4896208;29;20032;-77
2021/01/12 02:51:41;;;;;;;27.33;14.35;;;;;;;6.54;100.00;99496.69;4893759;29;20517;-77
2021/01/12 02:54:07;;;;;;;28.67;14.63;;;;;;;6.50;100.00;99485.16;4911474;29;20051;-77
2021/01/12 02:56:33;;;;;;;30.77;14.95;;;;;;;6.51;100.00;99481.34;4890431;29;20044;-77
2021/01/12 02:58:58;;;;;;;27.67;14.00;;;;;;;6.58;100.00;99491.41;4909294;29;20259;-77
2021/01/12 03:01:23;;;;;;;28.77;14.80;;;;;;;6.50;100.00;99479.81;4909412;29;20035;-76
2021/01/12 03:03:49;;;;;;;27.90;14.45;;;;;;;6.49;100.00;99480.16;4910554;29;20657;-77
2021/01/12 03:06:14;;;;;;;28.35;14.48;;;;;;;6.60;100.00;99475.78;4892201;29;20051;-78
2021/01/12 03:08:40;;;;;;;27.80;14.50;;;;;;;6.51;100.00;99475.22;4891510;29;20037;-76
2021/01/12 03:11:05;;;;;;;26.67;13.45;;;;;;;6.47;100.00;99479.75;4905624;29;20040;-77
2021/01/12 03:13:31;;;;;;;25.10;12.82;;;;;;;6.50;100.00;99468.34;4890351;29;20056;-76
2021/01/12 03:15:57;;;;;;;27.60;13.82;;;;;;;6.54;100.00;99469.19;4878691;29;20063;-76
2021/01/12 03:18:22;;;;;;;25.95;13.65;;;;;;;6.62;100.00;99463.56;4897052;29;20032;-75
2021/01/12 03:20:48;;;;;;;28.08;13.77;;;;;;;6.57;100.00;99463.88;4899573;29;20040;-75
2021/01/12 03:23:13;;;;;;;28.15;14.65;;;;;;;6.55;100.00;99468.03;4898637;29;20087;-76
2021/01/12 03:25:39;;;;;;;26.13;13.70;;;;;;;6.59;100.00;99455.50;4899786;29;20080;-78
2021/01/12 03:28:06;;;;;;;26.50;13.13;;;;;;;6.55;100.00;99457.34;4877964;29;20788;-78
2021/01/12 03:30:32;;;;;;;27.02;12.27;;;;;;;6.58;100.00;99452.06;4900709;29;20367;-78
2021/01/12 03:32:58;;;;;;;23.70;12.15;;;;;;;6.56;100.00;99451.66;4916031;29;20043;-75
2021/01/12 03:35:24;;;;;;;27.90;13.02;;;;;;;6.57;100.00;99442.50;4930999;29;20676;-76
2021/01/12 03:37:49;;;;;;;23.40;12.75;;;;;;;6.63;100.00;99446.41;4916948;29;20126;-77
2021/01/12 03:40:16;;;;;;;27.42;13.07;;;;;;;6.63;100.00;99448.31;4892054;29;20028;-77
2021/01/12 03:42:41;;;;;;;25.15;12.43;;;;;;;6.63;100.00;99441.06;4937535;29;20036;-76
2021/01/12 03:45:07;;;;;;;28.02;14.60;;;;;;;6.66;100.00;99436.91;4915163;29;20036;-77
2021/01/12 03:47:34;;;;;;;28.42;14.73;;;;;;;6.65;100.00;99432.69;4920001;29;20575;-77
2021/01/12 03:50:00;;;;;;;26.00;13.48;;;;;;;6.73;100.00;99432.44;4899920;29;20063;-75
2021/01/12 03:52:26;;;;;;;27.10;13.20;;;;;;;6.70;100.00;99430.47;4917482;29;20512;-76
2021/01/12 03:54:53;;;;;;;29.08;14.18;;;;;;;6.68;100.00;99423.97;4915212;29;20047;-77
2021/01/12 03:57:18;;;;;;;30.23;14.25;;;;;;;6.78;100.00;99420.66;4907133;29;20070;-77
2021/01/12 03:59:44;;;;;;;33.92;15.48;;;;;;;6.69;100.00;99423.59;4920529;29;20075;-76
2021/01/12 04:02:30;;;;;;;27.70;14.02;;;;;;;6.72;100.00;99417.50;4915213;29;20095;-78
2021/01/12 04:04:56;;;;;;;29.52;14.70;;;;;;;6.82;100.00;99416.91;4910634;29;20048;-76
2021/01/12 04:07:22;;;;;;;24.90;13.38;;;;;;;6.81;100.00;99411.91;4922795;29;20066;-76
2021/01/12 04:09:49;;;;;;;25.83;12.82;;;;;;;6.78;100.00;99409.94;4916140;29;20047;-76
2021/01/12 04:12:14;;;;;;;25.48;12.60;;;;;;;6.77;100.00;99405.75;4881559;29;20106;-77
2021/01/12 04:14:40;;;;;;;27.13;13.30;;;;;;;6.74;100.00;99407.22;4914185;29;20549;-76
2021/01/12 04:17:06;;;;;;;25.00;12.90;;;;;;;6.76;100.00;99404.97;4894039;29;20049;-77
2021/01/12 04:19:32;;;;;;;23.80;12.55;;;;;;;6.82;100.00;99392.81;4909012;29;20052;-76
2021/01/12 04:21:57;;;;;;;25.58;13.18;;;;;;;6.83;100.00;99401.63;4923183;29;20068;-76
2021/01/12 04:24:23;;;;;;;23.63;12.57;;;;;;;6.88;100.00;99404.75;4907798;29;20040;-78
2021/01/12 04:26:49;;;;;;;22.35;12.18;;;;;;;6.86;100.00;99400.91;4922316;29;20064;-76
2021/01/12 04:29:15;;;;;;;24.70;12.13;;;;;;;6.88;100.00;99404.75;4889200;29;20115;-77
2021/01/12 04:31:40;;;;;;;25.23;12.85;;;;;;;6.78;100.00;99399.25;4892815;29;20063;-77
2021/01/12 04:34:06;;;;;;;23.13;12.60;;;;;;;6.81;100.00;99399.31;4891266;29;20087;-77
2021/01/12 04:36:31;;;;;;;25.70;12.27;;;;;;;6.82;100.00;99400.84;4911783;29;20059;-76
2021/01/12 04:38:57;;;;;;;23.55;12.18;;;;;;;6.87;100.00;99395.19;4879430;29;20452;-77
2021/01/12 04:41:22;;;;;;;21.00;11.57;;;;;;;6.94;100.00;99386.50;4914885;29;20067;-76
2021/01/12 04:43:48;;;;;;;24.00;11.68;;;;;;;7.00;100.00;99401.88;4910908;29;20422;-78
2021/01/12 04:46:13;;;;;;;24.98;13.07;;;;;;;6.86;100.00;99390.97;4923751;29;20062;-76
2021/01/12 04:48:39;;;;;;;22.10;11.90;;;;;;;6.93;100.00;99380.38;4926074;29;20447;-76
2021/01/12 04:51:09;;;;;;;21.42;11.38;;;;;;;6.91;100.00;99392.56;4899511;29;20033;-76
2021/01/12 04:53:47;;;;;;;21.05;11.20;;;;;;;6.89;100.00;99392.91;4912397;29;20035;-76
2021/01/12 04:56:23;;;;;;;19.30;10.45;;;;;;;6.87;100.00;99391.75;4919065;29;20031;-77
2021/01/12 04:58:51;;;;;;;21.95;10.90;;;;;;;6.80;100.00;99391.63;4915942;29;20044;-75
2021/01/12 05:01:19;;;;;;;20.80;11.02;;;;;;;6.86;100.00;99390.97;4900999;29;20036;-76
2021/01/12 05:03:51;;;;;;;21.40;11.25;;;;;;;6.85;100.00;99383.31;4909798;29;20037;-76
2021/01/12 05:06:25;;;;;;;19.77;11.18;;;;;;;6.81;100.00;99385.94;4902892;29;20480;-79
2021/01/12 05:08:56;;;;;;;17.35;10.10;;;;;;;6.87;100.00;99381.81;4907686;29;20075;-76
2021/01/12 05:11:29;;;;;;;21.77;10.73;;;;;;;6.89;100.00;99389.50;4922880;29;20028;-76
2021/01/12 05:13:57;;;;;;;26.70;12.05;;;;;;;6.90;100.00;99391.03;4924952;29;20044;-77
2021/01/12 05:16:24;;;;;;;23.42;11.60;;;;;;;6.93;100.00;99383.03;4900184;29;20497;-76
2021/01/12 05:18:50;;;;;;;27.75;12.75;;;;;;;6.95;100.00;99385.38;4902372;29;20058;-78
2021/01/12 05:21:17;;;;;;;23.15;12.38;;;;;;;6.92;100.00;99394.88;4919432;29;20478;-76
2021/01/12 05:24:05;;;;;;;19.95;11.38;;;;;;;6.90;100.00;99391.03;4918926;29;20044;-76
2021/01/12 05:26:36;;;;;;;13.05;7.80;;;;;;;6.95;100.00;99388.06;4917276;29;20106;-76
2021/01/12 05:29:06;;;;;;;11.77;6.00;;;;;;;6.92;100.00;99394.88;4914348;29;20119;-76
2021/01/12 05:31:36;;;;;;;10.60;5.90;;;;;;;6.85;100.00;99397.44;4908397;29;20048;-78
2021/01/12 05:34:10;;;;;;;9.82;4.88;;;;;;;6.75;100.00;99389.28;4914021;29;20036;-76
2021/01/12 05:36:56;;;;;;;7.53;5.00;;;;;;;6.76;100.00;99396.16;4915409;29;20041;-75
2021/01/12 05:39:23;;;;;;;8.50;5.07;;;;;;;6.70;100.00;99393.03;4919689;29;20027;-75
2021/01/12 05:41:51;;;;;;;8.10;4.95;;;;;;;6.62;100.00;99395.97;4915307;29;20039;-77
2021/01/12 05:44:18;;;;;;;6.88;4.28;;;;;;;6.66;100.00;99402.16;4920423;29;20040;-77
2021/01/12 05:46:46;;;;;;;8.90;5.50;;;;;;;6.64;100.00;99405.16;4895034;29;20119;-77
2021/01/12 05:49:11;;;;;;;7.47;4.57;;;;;;;6.62;100.00;99404.75;4919163;29;20039;-76
2021/01/12 05:51:45;;;;;;;8.30;4.50;;;;;;;6.56;100.00;99402.75;4921521;29;20039;-78
2021/01/12 05:54:26;;;;;;;8.38;4.47;;;;;;;6.54;100.00;99411.13;4912660;29;20071;-77
2021/01/12 05:57:03;;;;;;;13.03;4.90;;;;;;;6.51;100.00;99403.81;4913517;29;20540;-76
2021/01/12 05:59:31;;;;;;;11.73;5.18;;;;;;;6.51;100.00;99406.47;4911959;29;20303;-76
2021/01/12 06:01:58;;;;;;;7.28;4.60;;;;;;;6.52;100.00;99407.25;4912938;29;20063;-77
2021/01/12 06:04:25;;;;;;;7.88;4.55;;;;;;;6.57;100.00;99405.06;4907555;29;22147;-77
2021/01/12 06:06:55;;;;;;;8.68;4.18;;;;;;;6.53;100.00;99414.13;4893195;29;20044;-76
2021/01/12 06:09:41;;;;;;;8.07;4.13;;;;;;;6.54;100.00;99413.03;4921305;29;20032;-76
2021/01/12 06:12:09;;;;;;;8.02;4.72;;;;;;;6.55;100.00;99417.22;4878418;29;20064;-77
2021/01/12 06:14:37;;;;;;;7.95;3.05;;;;;;;6.55;100.00;99418.00;4887308;29;20507;-76
2021/01/12 06:17:09;;;;;;;12.45;3.65;;;;;;;6.46;100.00;99420.16;4892681;29;20072;-77
2021/01/12 06:19:47;;;;;;;7.82;3.40;;;;;;;6.54;100.00;99421.06;4871422;29;20048;-76
2021/01/12 06:22:23;;;;;;;5.03;2.60;;;;;;;6.48;100.00;99423.25;4874308;29;20040;-76
2021/01/12 06:25:18;;;;;;;3.30;2.10;;;;;;;6.54;100.00;99421.06;4875702;29;20549;-76
2021/01/12 06:27:44;;;;;;;4.30;2.25;;;;;;;6.43;100.00;99425.47;4892448;29;20547;-78
2021/01/12 06:30:11;;;;;;;5.57;1.92;;;;;;;6.42;100.00;99430.03;4872002;29;20664;-77
2021/01/12 06:32:37;;;;;;;9.57;2.20;;;;;;;6.53;100.00;99438.22;4893889;29;20045;-76
2021/01/12 06:35:06;;;;;;;7.43;2.17;;;;;;;6.50;100.00;99447.75;4886743;29;20111;-77
2021/01/12 06:37:38;;;;;;;3.35;1.40;;;;;;;6.46;100.00;99459.50;4874270;29;20049;-78
2021/01/12 06:40:09;;;;;;;2.75;0.80;;;;;;;6.38;100.00;99470.06;4865757;29;20048;-77
2021/01/12 06:42:36;;;;;;;0.90;0.70;;;;;;;6.12;100.00;99463.84;4888876;29;20594;-76
2021/01/12 06:45:03;;;;;;;1.52;0.57;;;;;;;6.10;100.00;99468.78;4873791;29;20513;-77
2021/01/12 06:47:30;;;;;;;0.55;0.55;;;;;;;6.10;100.00;99474.13;4886099;29;20089;-78
2021/01/12 06:50:05;;;;;;;1.23;0.40;;;;;;;5.96;100.00;99465.84;4857851;29;20043;-78
2021/01/12 06:52:37;;;;;;;3.20;0.70;;;;;;;5.78;100.00;99475.38;4891589;29;20087;-77
2021/01/12 06:55:07;;;;;;;6.47;0.90;;;;;;;5.73;100.00;99484.44;4879244;29;20048;-76
2021/01/12 06:57:33;;;;;;;1.92;1.65;;;;;;;5.64;100.00;99486.53;4883240;29;20758;-76
2021/01/12 06:59:59;;;;;;;1.17;1.00;;;;;;;5.58;100.00;99503.97;4867626;29;20028;-76
2021/01/12 07:02:30;;;;;;;1.92;0.75;;;;;;;5.41;100.00;99489.13;4882795;29;20071;-77
2021/01/12 07:05:08;;;;;;;1.67;0.73;;;;;;;5.30;100.00;99506.78;4893032;29;20058;-77
2021/01/12 07:07:48;;;;;;;4.03;0.80;;;;;;;5.29;100.00;99502.56;4913384;29;20265;-77
2021/01/12 07:10:16;;;;;;;0.77;0.60;;;;;;;5.20;100.00;99499.34;4926346;29;20416;-77
2021/01/12 07:12:43;;;;;;;0.30;0.30;;;;;;;5.18;100.00;99493.56;4902800;29;20047;-77
2021/01/12 07:15:13;;;;;;;0.73;0.60;;;;;;;5.09;100.00;99502.88;4917484;29;20050;-76
2021/01/12 07:17:48;;;;;;;0.60;0.30;;;;;;;5.19;100.00;99497.00;4916207;29;20032;-77
2021/01/12 07:20:19;;;;;;;1.42;0.52;;;;;;;4.94;100.00;99500.97;4903001;29;20047;-77
2021/01/12 07:23:00;;;;;;;1.67;0.50;;;;;;;4.88;100.00;99497.81;4935792;29;20044;-77
2021/01/12 07:25:30;;;;;;;0.90;0.47;;;;;;;4.84;100.00;99502.28;4907209;29;20035;-77
2021/01/12 07:28:15;;;;;;;2.72;0.93;;;;;;;4.90;100.00;99494.78;4902251;29;20127;-78
2021/01/12 07:30:43;;;;;;;5.68;0.88;;;;;;;4.95;100.00;99508.66;4932081;29;20048;-78
2021/01/12 07:33:19;;;;;;;3.17;1.10;;;;;;;4.84;100.00;99498.84;4925849;29;20486;-76
2021/01/12 07:35:47;;;;;;;3.08;0.85;;;;;;;4.90;100.00;99500.13;4907184;29;20071;-77
2021/01/12 07:38:17;;;;;;;6.47;0.88;;;;;;;4.85;100.00;99509.16;4909955;29;20044;-77
2021/01/12 07:40:43;;;;;;;6.63;0.70;;;;;;;4.87;100.00;99511.50;4922711;29;20040;-77
2021/01/12 07:43:15;;;;;;;2.00;0.60;;;;;;;4.90;100.00;99508.13;4918844;29;20036;-77
2021/01/12 07:45:44;;;;;;;6.57;0.70;;;;;;;4.89;100.00;99503.91;4918698;29;20096;-78
2021/01/12 07:48:10;;;;;;;1.38;0.40;;;;;;;4.85;100.00;99506.50;4918035;29;20592;-77
2021/01/12 07:50:36;;;;;;;3.92;0.60;;;;;;;4.79;100.00;99510.53;4917111;29;20036;-77
2021/01/12 07:53:05;;;;;;;3.42;0.57;;;;;;;4.81;100.00;99512.88;4913272;29;20032;-77
2021/01/12 07:55:31;;;;;;;4.15;0.70;;;;;;;4.81;100.00;99510.97;4906587;29;20060;-76
2021/01/12 07:57:57;;;;;;;3.63;0.65;;;;;;;4.82;100.00;99509.84;4927270;29;20673;-76
2021/01/12 08:00:24;;;;;;;4.85;0.90;;;;;;;4.76;100.00;99521.91;4910576;29;20810;-77
2021/01/12 08:03:11;;;;;;;2.65;0.73;;;;;;;4.82;100.00;99517.84;4917955;29;20649;-76
2021/01/12 08:05:37;;;;;;;1.10;0.68;;;;;;;4.78;100.00;99519.66;4931053;29;20876;-77
2021/01/12 08:08:10;;;;;;;4.13;0.90;;;;;;;4.78;100.00;99522.31;4920792;29;20075;-77
2021/01/12 08:10:40;;;;;;;4.05;0.70;;;;;;;4.73;100.00;99522.59;4935156;29;20040;-77
2021/01/12 08:13:11;;;;;;;3.13;0.68;;;;;;;4.77;100.00;99530.66;4931693;29;20118;-78
2021/01/12 08:15:39;;;;;;;3.92;0.65;;;;;;;4.84;100.00;99530.84;4905334;29;20046;-78
2021/01/12 08:18:05;;;;;;;2.75;0.63;;;;;;;4.82;100.00;99536.50;4922862;29;20043;-77
2021/01/12 08:20:51;;;;;;;1.05;0.60;;;;;;;4.85;100.00;99530.50;4927142;29;20509;-76
2021/01/12 08:23:18;;;;;;;4.45;1.33;;;;;;;4.77;100.00;99533.34;4886609;29;20132;-77
2021/01/12 08:25:44;;;;;;;2.28;1.30;;;;;;;4.87;100.00;99533.59;4854506;29;20457;-77
2021/01/12 08:28:10;;;;;;;5.10;1.55;;;;;;;4.88;100.00;99545.06;4868225;29;20044;-78
2021/01/12 08:30:37;;;;;;;2.58;0.80;;;;;;;4.95;100.00;99548.66;4881924;29;20051;-78
2021/01/12 08:33:26;;;;;;;3.97;1.00;;;;;;;4.91;100.00;99549.69;4878805;29;20037;-77
2021/01/12 08:36:20;;;;;;;4.68;0.70;;;;;;;4.92;100.00;99557.34;4897729;29;20048;-77
2021/01/12 08:38:50;;;;;;;1.65;0.80;;;;;;;4.91;100.00;99565.69;4876749;29;20041;-77
2021/01/12 08:41:16;;;;;;;4.35;0.80;;;;;;;4.99;100.00;99559.41;4865170;29;20052;-77
2021/01/12 08:43:45;;;;;;;2.05;0.73;;;;;;;4.97;100.00;99565.09;4879745;29;20108;-77
2021/01/12 08:46:11;;;;;;;1.75;0.70;;;;;;;4.99;100.00;99576.19;4880492;29;20079;-77
2021/01/12 08:48:47;;;;;;;2.15;0.95;;;;;;;4.93;100.00;99569.56;4862133;29;20060;-78
2021/01/12 08:51:17;;;;;;;4.03;1.00;;;;;;;4.93;100.00;99569.56;4870076;29;20033;-77
2021/01/12 08:53:46;;;;;;;3.20;1.00;;;;;;;4.97;100.00;99575.00;4858293;29;20048;-76
2021/01/12 08:56:11;;;;;;;2.17;0.98;;;;;;;4.97;100.00;99570.44;4876670;29;20041;-76
2021/01/12 08:58:37;;;;;;;5.57;1.35;;;;;;;5.02;100.00;99588.84;4879253;29;20110;-78
2021/01/12 09:01:06;;;;;;;4.95;1.40;;;;;;;5.00;100.00;99577.75;4897544;29;20112;-76
2021/01/12 09:03:32;;;;;;;8.25;1.95;;;;;;;5.09;100.00;99593.59;4930952;29;20035;-78
2021/01/12 09:05:58;;;;;;;6.07;2.15;;;;;;;5.05;100.00;99592.72;4910099;29;20054;-78
2021/01/12 09:08:26;;;;;;;4.30;1.70;;;;;;;5.07;100.00;99596.56;4913898;29;20024;-77
2021/01/12 09:10:51;;;;;;;6.85;2.38;;;;;;;5.08;100.00;99594.69;4915402;29;20450;-77
2021/01/12 09:13:25;;;;;;;6.47;1.60;;;;;;;5.13;100.00;99595.19;4896859;29;20097;-79
2021/01/12 09:15:51;;;;;;;4.13;1.30;;;;;;;5.19;100.00;99599.16;4909273;29;20059;-80
2021/01/12 09:18:24;;;;;;;5.68;1.50;;;;;;;5.31;100.00;99607.09;4913070;29;20067;-77
2021/01/12 09:20:54;;;;;;;6.00;1.58;;;;;;;5.20;100.00;99611.41;4915659;29;20075;-77
2021/01/12 09:23:20;;;;;;;3.42;1.40;;;;;;;5.17;100.00;99608.63;4904431;29;20033;-76
2021/01/12 09:25:51;;;;;;;5.40;1.63;;;;;;;5.18;100.00;99608.31;4898788;29;20485;-76
2021/01/12 09:28:18;;;;;;;4.97;1.20;;;;;;;5.23;100.00;99608.03;4909133;29;20040;-78
2021/01/12 09:30:45;;;;;;;9.00;1.42;;;;;;;5.32;100.00;99613.22;4912050;29;20078;-76
2021/01/12 09:33:23;;;;;;;5.05;1.63;;;;;;;5.18;100.00;99613.63;4914485;29;20592;-77
2021/01/12 09:36:09;;;;;;;6.07;1.42;;;;;;;5.23;100.00;99612.59;4907244;29;20410;-76
2021/01/12 09:38:45;;;;;;;6.95;1.42;;;;;;;5.13;100.00;99615.78;4908280;29;20043;-77
2021/01/12 09:41:14;;;;;;;5.55;1.17;;;;;;;5.14;100.00;99620.00;4907670;29;20124;-76
2021/01/12 09:43:41;;;;;;;6.40;1.10;;;;;;;5.21;100.00;99628.16;4903542;29;20047;-78
2021/01/12 09:46:07;;;;;;;7.63;1.30;;;;;;;5.28;100.00;99621.09;4915278;29;20062;-77
2021/01/12 09:48:34;;;;;;;4.28;1.10;;;;;;;5.25;100.00;99637.81;4928835;29;20037;-76
2021/01/12 09:50:59;;;;;;;5.28;1.08;;;;;;;5.22;100.00;99640.41;4916664;29;20058;-78
2021/01/12 09:53:25;;;;;;;5.22;1.20;;;;;;;5.19;100.00;99635.75;4908970;29;20044;-77
2021/01/12 09:55:51;;;;;;;4.57;0.93;;;;;;;5.25;100.00;99637.81;4898404;29;20042;-77
2021/01/12 09:58:17;;;;;;;2.22;1.13;;;;;;;5.28;100.00;99639.78;4919941;29;20036;-77
2021/01/12 10:00:42;;;;;;;6.53;1.20;;;;;;;5.27;100.00;99646.25;4906158;29;20466;-76
2021/01/12 10:03:08;;;;;;;6.90;1.30;;;;;;;5.26;100.00;99652.72;4906435;29;20160;-77
2021/01/12 10:05:41;;;;;;;9.20;1.35;;;;;;;5.19;100.00;99651.75;4889159;29;20074;-76
2021/01/12 10:08:07;;;;;;;6.47;1.50;;;;;;;5.37;100.00;99650.31;4924913;29;20741;-77
2021/01/12 10:10:33;;;;;;;10.20;1.63;;;;;;;5.53;100.00;99656.41;4897160;29;20032;-77
2021/01/12 10:13:03;;;;;;;8.80;1.38;;;;;;;5.77;100.00;99647.44;4914479;29;20170;-76
2021/01/12 10:15:35;;;;;;;5.05;1.30;;;;;;;6.01;100.00;99647.25;4909958;29;20119;-77
2021/01/12 10:18:00;;;;;;;5.28;1.40;;;;;;;6.23;100.00;99651.94;4908647;29;20502;-77
2021/01/12 10:20:29;;;;;;;4.90;1.27;;;;;;;6.29;100.00;99647.84;4924140;29;20115;-77
2021/01/12 10:43:06;;;;;;;5.63;1.10;;;;;;;7.08;100.00;99657.78;4738990;30;20690;-77
2021/01/12 10:45:32;;;;;;;4.05;0.90;;;;;;;6.96;100.00;99666.00;4719541;29;20141;-76
2021/01/12 10:47:57;;;;;;;4.82;1.00;;;;;;;6.80;100.00;99661.84;4803220;29;21017;-77
2021/01/12 10:50:43;;;;;;;3.97;0.90;;;;;;;6.85;100.00;99661.56;4768917;29;20075;-77
2021/01/12 10:53:08;;;;;;;1.73;0.75;;;;;;;6.93;100.00;99663.25;4753033;30;20572;-77
2021/01/12 10:55:34;;;;;;;7.75;0.82;;;;;;;6.84;100.00;99654.66;4757419;30;20060;-76
2021/01/12 10:57:59;;;;;;;5.43;0.80;;;;;;;7.02;100.00;99661.91;4751299;30;20144;-77
2021/01/12 11:00:25;;;;;;;2.42;0.70;;;;;;;7.06;100.00;99656.59;4752441;30;20044;-77
2021/01/12 11:02:52;;;;;;;5.05;1.20;;;;;;;6.89;100.00;99657.06;4721241;30;20057;-77
2021/01/12 11:05:18;;;;;;;6.40;0.90;;;;;;;6.79;100.00;99658.41;4734191;30;20049;-76
2021/01/12 11:07:45;;;;;;;2.33;0.82;;;;;;;6.61;100.00;99651.94;4737317;30;20154;-77
2021/01/12 11:10:11;;;;;;;9.90;0.90;;;;;;;6.51;100.00;99657.84;4769523;29;20054;-77
2021/01/12 11:12:37;;;;;;;5.57;0.80;;;;;;;6.51;100.00;99657.84;4843687;29;20046;-77
2021/01/12 11:15:07;;;;;;;3.80;0.68;;;;;;;6.48;100.00;99657.78;4839204;29;20121;-77
2021/01/12 11:17:33;;;;;;;6.07;0.77;;;;;;;6.44;100.00;99657.72;4809201;29;20057;-77
2021/01/12 11:19:59;;;;;;;6.05;0.70;;;;;;;6.42;100.00;99654.63;4825331;29;20125;-77
2021/01/12 11:22:27;;;;;;;7.30;0.90;;;;;;;6.46;100.00;99654.69;4844593;29;20467;-76
2021/01/12 11:24:58;;;;;;;4.70;0.63;;;;;;;6.39;100.00;99660.66;4837922;29;20133;-77
2021/01/12 11:27:24;;;;;;;6.57;0.87;;;;;;;6.44;100.00;99648.91;4840368;29;20038;-77
2021/01/12 11:29:50;;;;;;;7.45;1.00;;;;;;;6.40;100.00;99662.22;4857601;29;20501;-77
2021/01/12 11:32:37;;;;;;;5.43;0.70;;;;;;;6.42;100.00;99662.63;4898839;29;20032;-77
2021/01/12 11:35:03;;;;;;;6.25;0.82;;;;;;;6.33;100.00;99657.47;4912335;29;20524;-77
2021/01/12 11:37:29;;;;;;;6.93;0.98;;;;;;;6.35;100.00;99657.91;4932449;29;20159;-77
2021/01/12 11:39:57;;;;;;;3.63;0.68;;;;;;;6.35;100.00;99657.13;4912464;29;20150;-76
2021/01/12 11:42:23;;;;;;;4.63;0.85;;;;;;;6.37;100.00;99652.19;4915132;29;20046;-77
2021/01/12 11:44:49;;;;;;;3.95;0.98;;;;;;;6.40;100.00;99651.50;4921561;29;20035;-76
2021/01/12 11:47:15;;;;;;;5.10;0.70;;;;;;;6.43;100.00;99660.75;4933879;29;20405;-76
2021/01/12 11:49:40;;;;;;;11.00;1.00;;;;;;;6.47;99.09;99662.34;4909256;29;20047;-77
2021/01/12 11:52:08;;;;;;;11.48;1.10;;;;;;;6.33;99.87;99654.03;4936494;29;20043;-76